METAR UND TAF INFORMATION
FIMP 232300Z 15014KT 9999 VCSH SCT015 BKN050 21/19 Q1017

 FLUGHAFENKARTE

 RUNWAY INFORMATION
Runway 14 Runway length 11056 ft Runway width 148 ft
Runway elevation 183 ft Runway displaced threshold 1082 ft Runway heading 117
Runway 32 Runway length 11056 ft Runway width 148 ft
Runway elevation 98 ft Runway displaced threshold 0 ft Runway heading 297

 AIRPORT FREQUENCIES
Type A/G Name INFO Frequency 347.6 MHZ
Type APP Name APP Frequency 119.1 MHZ
Type ATIS Name ATIS Frequency 126.2 MHZ
Type TWR Name TWR Frequency 118.1 MHZ

 AIRPORT NEAR NAVIGATION AIDS
Type NDB Name Flic -eE --lFc Frequency 258 KHZ
Type VOR-DME Name Grand Bay Frequency 114800 KHZ
Type NDB Name Plaisance Frequency 343 KHZ
Type VOR-DME Name Plaisance Frequency 113700 KHZ